Time;durP1;ratioP1;P1;durP2;ratioP2;P2;SDS_P1;SDS_P2;PMS_P1;PMS_P2;Temp;Humidity;BMP_temperature;BMP_pressure;BME280_temperature;BME280_humidity;BME280_pressure;Samples;Min_cycle;Max_cycle;Signal;HPM_P1;HPM_P2
2021/05/03 00:03:05;;;;;;;5.17;3.98;;;;;;;7.32;77.25;100141.48;2137204;83;27856;-62
2021/05/03 00:06:07;;;;;;;7.80;4.60;;;;;;;7.32;76.98;100138.81;2120752;83;28890;-62
2021/05/03 00:09:10;;;;;;;6.75;5.30;;;;;;;7.31;77.18;100136.59;2139918;83;31631;-62
2021/05/03 00:12:13;;;;;;;7.70;5.40;;;;;;;7.34;77.19;100139.63;2102772;84;33208;-61
2021/05/03 00:15:17;;;;;;;6.42;5.20;;;;;;;7.32;77.09;100138.33;2101774;83;29159;-62
2021/05/03 00:18:20;;;;;;;6.72;5.20;;;;;;;7.32;77.26;100141.00;2082744;83;27784;-63
2021/05/03 00:21:22;;;;;;;8.15;5.78;;;;;;;7.33;77.35;100129.41;2088116;83;28852;-63
2021/05/03 00:24:25;;;;;;;7.40;6.10;;;;;;;7.35;77.20;100136.89;2107476;84;31142;-62
2021/05/03 00:27:27;;;;;;;7.15;5.87;;;;;;;7.36;77.43;100139.11;2107373;84;33168;-61
2021/05/03 00:30:29;;;;;;;7.75;6.00;;;;;;;7.37;77.19;100140.81;2107467;83;29183;-64
2021/05/03 00:33:32;;;;;;;9.73;5.97;;;;;;;7.39;77.33;100141.18;2112558;83;27683;-60
2021/05/03 00:36:34;;;;;;;7.85;6.33;;;;;;;7.39;77.22;100147.84;2121936;83;29548;-70
2021/05/03 00:39:36;;;;;;;6.60;5.97;;;;;;;7.40;77.33;100150.91;2121696;83;30823;-66
2021/05/03 00:42:42;;;;;;;7.25;6.50;;;;;;;7.42;77.34;100150.84;2116121;83;35432;-62
2021/05/03 00:45:45;;;;;;;5.57;5.00;;;;;;;7.38;77.15;100152.77;2140001;81;29280;-64
2021/05/03 00:48:48;;;;;;;7.28;6.12;;;;;;;7.37;77.33;100152.81;2129132;83;27720;-61
2021/05/03 00:51:51;;;;;;;7.83;5.92;;;;;;;7.32;77.10;100154.80;2128644;83;28852;-62
2021/05/03 00:54:54;;;;;;;8.38;7.03;;;;;;;7.31;77.20;100151.25;2143770;82;31251;-64
2021/05/03 00:57:56;;;;;;;9.90;7.65;;;;;;;7.33;77.46;100142.73;2154738;82;34235;-67
2021/05/03 01:00:59;;;;;;;10.88;7.28;;;;;;;7.35;77.49;100146.70;2154662;82;29152;-71
2021/05/03 01:04:02;;;;;;;11.22;7.90;;;;;;;7.35;77.40;100148.03;2154423;82;27683;-63
2021/05/03 01:07:04;;;;;;;9.78;7.70;;;;;;;7.34;77.35;100150.29;2154010;82;28671;-62
2021/05/03 01:10:07;;;;;;;11.50;8.10;;;;;;;7.31;77.38;100144.59;2154696;82;31215;-60
2021/05/03 01:13:09;;;;;;;8.40;7.35;;;;;;;7.29;77.44;100147.33;2154640;82;33268;-64
2021/05/03 01:16:12;;;;;;;10.72;7.95;;;;;;;7.31;77.46;100147.25;2153558;82;29641;-64
2021/05/03 01:19:19;;;;;;;9.85;7.80;;;;;;;7.28;77.38;100149.59;2153582;82;27586;-60
2021/05/03 01:22:19;;;;;;;11.07;9.30;;;;;;;7.29;77.37;100145.11;2154682;82;29776;-61
2021/05/03 01:25:22;;;;;;;11.22;8.85;;;;;;;7.29;77.56;100146.00;2155057;82;32122;-65
2021/05/03 01:28:24;;;;;;;12.28;9.68;;;;;;;7.27;77.47;100142.52;2153687;82;33120;-63
2021/05/03 01:31:26;;;;;;;12.45;9.50;;;;;;;7.24;77.38;100145.30;2152337;82;29599;-64
2021/05/03 01:34:29;;;;;;;10.63;9.00;;;;;;;7.22;77.57;100143.15;2154876;82;27678;-60
2021/05/03 01:37:31;;;;;;;12.20;9.28;;;;;;;7.21;77.47;100144.08;2154952;82;28832;-61
2021/05/03 01:40:38;;;;;;;11.55;8.68;;;;;;;7.20;77.59;100155.66;2154737;82;31150;-59
2021/05/03 01:43:41;;;;;;;13.25;9.50;;;;;;;7.21;77.61;100155.21;2153488;82;33059;-59
2021/05/03 01:46:44;;;;;;;10.38;9.28;;;;;;;7.22;77.57;100153.80;2154014;82;29184;-59
2021/05/03 01:49:47;;;;;;;11.65;9.50;;;;;;;7.21;77.59;100160.06;2153609;82;27659;-60
2021/05/03 01:52:51;;;;;;;18.00;9.18;;;;;;;7.21;77.55;100163.20;2154277;82;28832;-61
2021/05/03 01:55:58;;;;;;;16.12;10.25;;;;;;;7.21;77.52;100157.39;2141903;82;31371;-59
2021/05/03 01:59:00;;;;;;;15.08;10.65;;;;;;;7.19;77.42;100156.61;2131603;83;33280;-59
2021/05/03 02:02:02;;;;;;;12.85;9.40;;;;;;;7.14;77.46;100163.42;2125445;83;29171;-66
2021/05/03 02:05:07;;;;;;;10.98;8.73;;;;;;;7.13;77.50;100151.02;2126955;83;27663;-59
2021/05/03 02:08:09;;;;;;;9.53;8.35;;;;;;;7.13;77.45;100156.84;2131697;83;28847;-59
2021/05/03 02:11:11;;;;;;;11.00;7.50;;;;;;;7.12;77.52;100152.43;2118902;83;30847;-59
2021/05/03 02:14:14;;;;;;;10.10;7.50;;;;;;;7.11;77.42;100155.58;2119924;82;33134;-58
2021/05/03 02:17:16;;;;;;;9.95;7.67;;;;;;;7.08;77.24;100153.47;2094225;85;29169;-61
2021/05/03 02:20:18;;;;;;;8.63;7.72;;;;;;;7.07;77.26;100153.94;2122637;83;27619;-58
2021/05/03 02:23:21;;;;;;;10.65;8.15;;;;;;;7.04;77.30;100155.38;2129350;83;28904;-63
2021/05/03 02:26:23;;;;;;;12.28;7.85;;;;;;;7.03;77.21;100151.45;2112851;83;31102;-58
2021/05/03 02:29:26;;;;;;;9.30;7.60;;;;;;;6.98;77.12;100152.94;2096696;83;33354;-58
2021/05/03 02:32:28;;;;;;;8.28;6.47;;;;;;;6.94;76.93;100147.34;2085735;83;30009;-59
2021/05/03 02:35:33;;;;;;;7.65;5.90;;;;;;;6.92;77.10;100155.84;2094428;85;27756;-59
2021/05/03 02:38:35;;;;;;;8.30;6.90;;;;;;;6.91;76.91;100164.76;2096329;83;28809;-58
2021/05/03 02:41:37;;;;;;;7.65;6.53;;;;;;;6.91;77.10;100164.28;2131307;83;33494;-58
2021/05/03 02:44:40;;;;;;;8.50;7.22;;;;;;;6.91;77.15;100168.28;2131748;83;33580;-58
2021/05/03 02:47:44;;;;;;;10.95;7.33;;;;;;;6.96;77.19;100162.33;2119296;83;28980;-58
2021/05/03 02:50:46;;;;;;;8.90;6.65;;;;;;;6.95;76.98;100167.72;2094077;83;28032;-58
2021/05/03 02:53:49;;;;;;;8.43;7.47;;;;;;;6.95;77.12;100169.05;2131742;83;29395;-58
2021/05/03 02:56:52;;;;;;;9.40;6.78;;;;;;;6.96;77.18;100176.98;2131740;82;32237;-58
2021/05/03 02:59:55;;;;;;;9.95;7.20;;;;;;;6.97;76.93;100177.83;2131768;83;34041;-58
2021/05/03 03:02:58;;;;;;;7.80;6.85;;;;;;;6.99;76.98;100183.53;2120511;83;29168;-59
2021/05/03 03:06:00;;;;;;;10.13;8.25;;;;;;;6.98;76.87;100176.91;2114274;83;27814;-58
2021/05/03 03:09:05;;;;;;;11.75;8.90;;;;;;;6.98;76.78;100185.78;2101254;83;29203;-60
2021/05/03 03:12:11;;;;;;;11.18;7.80;;;;;;;6.97;76.74;100189.37;2114333;83;31127;-60
2021/05/03 03:15:16;;;;;;;9.95;8.25;;;;;;;7.00;76.78;100191.04;2118309;83;33110;-68
2021/05/03 03:18:20;;;;;;;10.30;8.45;;;;;;;6.99;76.67;100191.52;2122444;83;30513;-65
2021/05/03 03:21:23;;;;;;;10.95;8.40;;;;;;;6.98;76.58;100203.09;2133277;83;27734;-60
2021/05/03 03:24:25;;;;;;;9.23;7.50;;;;;;;6.96;76.58;100202.72;2108814;83;31190;-60
2021/05/03 03:27:27;;;;;;;9.28;7.60;;;;;;;6.94;76.58;100202.79;2134300;83;31163;-60
2021/05/03 03:30:30;;;;;;;9.40;8.00;;;;;;;6.96;76.68;100204.94;2116736;83;34069;-61
2021/05/03 03:33:32;;;;;;;11.35;7.87;;;;;;;6.95;76.55;100211.67;2131625;83;29589;-58
2021/05/03 03:36:35;;;;;;;10.25;7.95;;;;;;;6.95;76.42;100211.19;2110604;83;28191;-58
2021/05/03 03:39:39;;;;;;;11.03;8.03;;;;;;;6.92;76.26;100213.95;2101322;83;28820;-58
2021/05/03 03:42:42;;;;;;;9.68;7.10;;;;;;;6.90;76.31;100206.95;2131839;82;31155;-58
2021/05/03 03:45:45;;;;;;;8.68;7.67;;;;;;;6.88;76.16;100214.98;2128547;83;33130;-59
2021/05/03 03:48:49;;;;;;;6.67;5.17;;;;;;;6.87;76.47;100211.91;2114568;84;29179;-58
2021/05/03 03:51:51;;;;;;;11.75;7.87;;;;;;;6.88;76.36;100219.45;2114227;83;27628;-59
2021/05/03 03:54:54;;;;;;;9.18;7.03;;;;;;;6.87;76.13;100218.56;2114471;83;29260;-58
2021/05/03 03:57:56;;;;;;;9.25;6.50;;;;;;;6.86;76.16;100234.17;2121308;83;31613;-58
2021/05/03 04:00:59;;;;;;;9.00;5.95;;;;;;;6.84;76.03;100228.88;2122521;83;34504;-59
2021/05/03 04:04:03;;;;;;;10.03;6.12;;;;;;;6.83;75.82;100240.45;2118753;83;29619;-59
2021/05/03 04:07:19;;;;;;;6.42;5.75;;;;;;;6.82;75.99;100244.03;2125748;83;27667;-59
2021/05/03 04:13:56;;;;;;;10.80;6.12;;;;;;;6.79;75.75;100244.13;2114455;83;32055;-58
2021/05/03 04:26:25;;;;;;;8.53;6.33;;;;;;;6.80;75.87;100261.85;2113217;83;29576;-58
2021/05/03 04:29:28;;;;;;;8.23;6.05;;;;;;;6.82;75.52;100260.02;2112906;84;31143;-58
2021/05/03 04:32:30;;;;;;;9.63;7.05;;;;;;;6.83;75.68;100264.89;2106029;83;33115;-58
2021/05/03 04:35:32;;;;;;;9.73;6.37;;;;;;;6.84;75.66;100271.48;2094084;85;29655;-59
2021/05/03 04:38:36;;;;;;;7.85;6.85;;;;;;;6.87;75.79;100282.48;2094172;84;27602;-60
2021/05/03 04:41:38;;;;;;;7.92;5.67;;;;;;;6.89;75.67;100278.45;2094122;85;29270;-58
2021/05/03 04:44:41;;;;;;;7.33;5.75;;;;;;;6.90;75.82;100293.03;2167274;82;31747;-59
2021/05/03 04:47:43;;;;;;;5.97;5.42;;;;;;;6.93;75.20;100288.94;2136307;82;33320;-59
2021/05/03 04:50:45;;;;;;;6.30;5.70;;;;;;;6.94;75.21;100293.34;2131348;83;30424;-58
2021/05/03 04:53:48;;;;;;;6.67;5.12;;;;;;;6.96;75.26;100301.27;2131759;83;27667;-58
2021/05/03 04:56:50;;;;;;;7.08;5.03;;;;;;;6.99;74.83;100301.16;2129835;81;28904;-58
2021/05/03 04:59:52;;;;;;;6.37;4.83;;;;;;;6.99;74.81;100312.70;2115123;84;31605;-58
2021/05/03 05:02:55;;;;;;;6.30;5.33;;;;;;;7.03;74.81;100311.27;2093236;83;33550;-58
2021/05/03 05:05:57;;;;;;;7.92;4.47;;;;;;;7.06;74.79;100323.12;2095200;83;29671;-60
2021/05/03 05:09:04;;;;;;;6.90;4.05;;;;;;;7.10;74.73;100321.66;2124486;83;28212;-75
2021/05/03 05:12:05;;;;;;;4.58;3.87;;;;;;;7.20;74.91;100322.66;2122586;83;29132;-62
2021/05/03 05:15:08;;;;;;;7.67;5.22;;;;;;;7.30;74.71;100332.05;2129942;82;32035;-60
2021/05/03 05:18:11;;;;;;;7.90;5.90;;;;;;;7.36;74.12;100333.65;2130675;83;34438;-76
2021/05/03 05:21:13;;;;;;;5.40;4.90;;;;;;;7.40;74.27;100339.25;2121930;82;29175;-77
2021/05/03 05:24:15;;;;;;;5.22;4.42;;;;;;;7.49;74.37;100335.39;2112209;84;27698;-73
2021/05/03 05:27:18;;;;;;;5.85;4.72;;;;;;;7.56;74.34;100339.59;2112141;84;28838;-74
2021/05/03 05:30:21;;;;;;;4.90;4.30;;;;;;;7.59;73.64;100352.81;2121173;83;31188;-76
2021/05/03 05:33:23;;;;;;;8.55;4.95;;;;;;;7.59;73.79;100347.00;2130390;83;33213;-69
2021/05/03 05:36:25;;;;;;;5.03;4.28;;;;;;;7.69;73.94;100354.68;2125293;82;30169;-72
2021/05/03 05:39:28;;;;;;;3.95;3.55;;;;;;;7.88;73.51;100356.19;2120047;83;27628;-70
2021/05/03 05:42:30;;;;;;;4.67;3.60;;;;;;;7.97;72.81;100350.48;2091217;84;29788;-72
2021/05/03 05:45:32;;;;;;;5.22;3.62;;;;;;;8.08;73.16;100359.42;2076403;85;31306;-75
2021/05/03 05:48:36;;;;;;;4.67;3.45;;;;;;;8.24;73.32;100356.16;2089599;84;33986;-71
2021/05/03 05:51:39;;;;;;;4.17;3.70;;;;;;;8.46;72.70;100358.84;2044137;86;30022;-71
2021/05/03 05:54:41;;;;;;;6.62;3.77;;;;;;;8.57;72.44;100363.34;2063151;85;27708;-73
2021/05/03 05:57:44;;;;;;;3.22;2.98;;;;;;;8.63;72.47;100367.08;2091953;83;28794;-80
2021/05/03 06:00:46;;;;;;;12.07;7.35;;;;;;;8.68;71.46;100372.70;2140012;83;33418;-76
2021/05/03 06:03:49;;;;;;;7.72;3.37;;;;;;;8.73;71.72;100375.59;2145559;83;33964;-76
2021/05/03 06:06:52;;;;;;;4.95;3.17;;;;;;;8.82;71.44;100377.02;2142429;82;30209;-63
2021/05/03 06:09:55;;;;;;;3.85;3.05;;;;;;;8.90;71.38;100390.05;2145263;82;27742;-63
2021/05/03 06:12:57;;;;;;;6.10;3.22;;;;;;;8.99;71.17;100386.13;2134759;83;27735;-65
2021/05/03 06:16:01;;;;;;;5.15;2.87;;;;;;;9.15;70.95;100378.35;2144448;83;31136;-65
2021/05/03 06:19:04;;;;;;;5.35;2.52;;;;;;;9.33;70.72;100373.56;2139966;83;34039;-69
2021/05/03 06:22:07;;;;;;;5.33;2.75;;;;;;;9.84;71.07;100387.35;2121554;83;29143;-58
2021/05/03 06:25:12;;;;;;;5.45;2.47;;;;;;;10.20;70.99;100377.69;2133354;83;27735;-71
2021/05/03 06:28:15;;;;;;;4.25;2.70;;;;;;;10.70;69.83;100374.91;2145614;83;28825;-67
2021/05/03 06:31:19;;;;;;;4.55;2.10;;;;;;;11.01;68.98;100385.44;2145415;83;30336;-59
2021/05/03 06:34:23;;;;;;;8.13;2.85;;;;;;;11.13;68.59;100387.98;2145745;83;33188;-58
2021/05/03 06:37:25;;;;;;;6.40;2.72;;;;;;;11.20;68.10;100397.44;2142451;83;29156;-58
2021/05/03 06:40:27;;;;;;;8.83;6.70;;;;;;;11.22;67.98;100398.72;2144523;82;28063;-59
2021/05/03 06:43:30;;;;;;;10.85;6.08;;;;;;;11.25;67.02;100398.57;2145336;83;29247;-58
2021/05/03 06:46:32;;;;;;;26.00;15.95;;;;;;;11.32;67.39;100412.05;2140283;83;31206;-63
2021/05/03 06:49:35;;;;;;;7.35;5.80;;;;;;;11.78;66.34;100391.80;2145444;83;33992;-67
2021/05/03 06:52:41;;;;;;;4.62;2.12;;;;;;;12.49;67.00;100404.59;2144447;83;28992;-67
2021/05/03 06:55:46;;;;;;;4.45;2.47;;;;;;;13.27;65.17;100402.35;2145287;83;27881;-59
2021/05/03 06:58:48;;;;;;;7.65;4.00;;;;;;;13.83;63.81;100411.55;2128921;82;28824;-66
2021/05/03 07:01:52;;;;;;;4.47;3.47;;;;;;;13.83;64.31;100409.33;2153923;82;32185;-66
2021/05/03 07:04:56;;;;;;;3.35;2.17;;;;;;;14.17;62.84;100402.33;2136468;81;32358;-63
2021/05/03 07:07:58;;;;;;;5.17;2.80;;;;;;;14.65;62.92;100410.05;2151994;82;29173;-62
2021/05/03 07:11:05;;;;;;;4.85;3.50;;;;;;;15.06;62.26;100418.64;2154361;82;27755;-64
2021/05/03 07:14:05;;;;;;;2.77;2.13;;;;;;;15.49;62.75;100421.62;2139135;82;28813;-63
2021/05/03 07:17:07;;;;;;;3.77;2.45;;;;;;;15.85;58.63;100416.47;2143802;82;31079;-62
2021/05/03 07:20:13;;;;;;;10.05;2.85;;;;;;;16.11;60.44;100418.72;2118058;82;34064;-66
2021/05/03 07:23:16;;;;;;;4.50;3.10;;;;;;;16.37;60.42;100429.02;2127829;83;29168;-68
2021/05/03 07:26:18;;;;;;;3.02;1.50;;;;;;;16.49;59.29;100431.80;2137082;82;27674;-66
2021/05/03 07:29:20;;;;;;;3.17;1.52;;;;;;;16.47;58.23;100431.92;2125374;82;28841;-62
2021/05/03 07:32:23;;;;;;;2.20;1.37;;;;;;;16.98;56.91;100442.25;2143941;82;31339;-60
2021/05/03 07:35:26;;;;;;;5.90;1.27;;;;;;;16.98;56.91;100442.25;2143868;83;33184;-62
2021/05/03 07:38:28;;;;;;;3.87;1.87;;;;;;;17.11;55.32;100440.85;2143598;82;29172;-61
2021/05/03 07:41:30;;;;;;;3.92;1.67;;;;;;;17.48;56.83;100452.09;2120173;84;27713;-62
2021/05/03 07:44:33;;;;;;;3.67;1.70;;;;;;;17.70;55.00;100445.88;2121306;83;28896;-62
2021/05/03 07:47:35;;;;;;;3.95;1.75;;;;;;;17.69;54.27;100441.44;2154551;82;33492;-62
2021/05/03 07:50:37;;;;;;;2.80;1.57;;;;;;;17.51;54.36;100443.22;2144456;82;33112;-62
2021/05/03 07:53:40;;;;;;;3.33;1.50;;;;;;;17.24;54.08;100422.70;2089313;84;29695;-71
2021/05/03 07:56:44;;;;;;;2.42;1.50;;;;;;;17.24;54.08;100422.70;2117057;82;27771;-61
2021/05/03 07:59:46;;;;;;;3.98;2.30;;;;;;;17.42;51.69;100448.86;2115925;83;28866;-62
2021/05/03 08:02:48;;;;;;;2.65;1.40;;;;;;;17.44;52.46;100455.02;2169863;81;31183;-62
2021/05/03 08:05:50;;;;;;;4.08;1.62;;;;;;;17.74;51.24;100431.96;2140156;82;33933;-62
2021/05/03 08:08:52;;;;;;;3.02;1.32;;;;;;;18.07;51.92;100458.79;2141383;81;29183;-62
2021/05/03 08:11:55;;;;;;;2.90;1.40;;;;;;;18.06;49.37;100450.79;2139746;83;27808;-62
2021/05/03 08:14:59;;;;;;;2.52;1.67;;;;;;;17.96;48.74;100456.52;2109673;83;29771;-63
2021/05/03 08:18:02;;;;;;;4.87;1.47;;;;;;;17.72;50.12;100472.36;2127608;82;32186;-67
2021/05/03 08:21:06;;;;;;;6.00;2.92;;;;;;;17.99;49.10;100453.60;2140611;83;33172;-59
2021/05/03 08:24:09;;;;;;;3.72;1.45;;;;;;;18.03;48.48;100461.88;2141258;81;29149;-60
2021/05/03 08:27:11;;;;;;;2.83;1.45;;;;;;;18.20;48.15;100469.54;2140003;81;27671;-62
2021/05/03 08:30:15;;;;;;;1.90;1.27;;;;;;;18.26;47.25;100474.11;2139451;81;28877;-59
2021/05/03 08:33:19;;;;;;;2.10;1.10;;;;;;;17.99;47.33;100472.58;2139877;81;34902;-59
2021/05/03 08:36:21;;;;;;;3.45;1.40;;;;;;;17.83;46.58;100475.60;2141264;81;33189;-65
2021/05/03 08:39:26;;;;;;;7.92;1.30;;;;;;;17.94;48.28;100472.06;2138576;81;29230;-59
2021/05/03 08:42:28;;;;;;;2.70;1.32;;;;;;;17.79;45.63;100485.80;2142927;81;27697;-64
2021/05/03 08:45:32;;;;;;;1.62;1.10;;;;;;;17.06;45.80;100480.92;2142941;81;31178;-60
2021/05/03 08:55:15;;;;;;;3.02;1.20;;;;;;;15.87;47.43;100496.96;2286391;75;28330;-61
2021/05/03 08:58:17;;;;;;;3.47;1.90;;;;;;;15.55;47.61;100504.04;2282590;77;28800;-71
2021/05/03 09:01:20;;;;;;;4.72;1.60;;;;;;;15.38;46.98;100503.34;2275733;77;31545;-60
2021/05/03 09:04:24;;;;;;;4.47;1.55;;;;;;;15.15;47.14;100501.66;2258707;77;33817;-63
2021/05/03 09:07:26;;;;;;;4.42;2.50;;;;;;;15.30;47.16;100509.25;2276322;75;28583;-60
2021/05/03 09:10:30;;;;;;;2.37;1.22;;;;;;;15.11;46.64;100510.95;2286731;75;27790;-59
2021/05/03 09:13:37;;;;;;;3.75;1.75;;;;;;;14.71;46.43;100512.16;2296770;77;27962;-62
2021/05/03 09:16:45;;;;;;;1.92;1.27;;;;;;;14.29;46.47;100512.03;2217271;80;32036;-72
2021/05/03 09:19:47;;;;;;;2.75;1.35;;;;;;;14.23;47.04;100506.55;2253586;78;34149;-62
2021/05/03 09:22:58;;;;;;;1.95;1.30;;;;;;;14.33;46.87;100498.77;2217750;80;28869;-61
2021/05/03 09:26:04;;;;;;;2.77;1.62;;;;;;;14.43;46.83;100505.80;2237610;78;28269;-64
2021/05/03 09:29:30;;;;;;;1.92;1.27;;;;;;;14.43;47.67;100499.91;2180746;80;28833;-70
2021/05/03 09:32:33;;;;;;;4.25;2.50;;;;;;;14.28;46.29;100509.84;2250074;77;31549;-60
2021/05/03 09:35:51;;;;;;;3.20;1.90;;;;;;;13.98;46.79;100512.08;2214714;79;33121;-61
2021/05/03 09:38:53;;;;;;;2.77;1.50;;;;;;;13.72;47.27;100519.05;2222594;79;28857;-61
2021/05/03 09:41:55;;;;;;;2.05;1.30;;;;;;;13.46;47.14;100515.20;2191496;80;27679;-59
2021/05/03 09:45:08;;;;;;;8.30;4.40;;;;;;;13.27;47.16;100519.39;2219537;80;29231;-59
2021/05/03 09:48:10;;;;;;;8.50;3.85;;;;;;;13.12;47.80;100524.69;2219698;80;30947;-63
2021/05/03 09:51:33;;;;;;;17.40;8.28;;;;;;;13.02;47.38;100519.45;2219460;80;33342;-66
2021/05/03 09:54:36;;;;;;;3.58;2.10;;;;;;;12.96;47.70;100515.30;2237546;78;29810;-61
2021/05/03 09:57:38;;;;;;;5.95;3.65;;;;;;;12.95;48.05;100515.36;2255329;77;27684;-64
2021/05/03 10:00:49;;;;;;;5.53;2.60;;;;;;;12.84;47.37;100520.88;2248626;77;29778;-62
2021/05/03 10:03:52;;;;;;;3.58;2.00;;;;;;;12.72;48.36;100525.59;2209412;80;31131;-61
2021/05/03 10:06:54;;;;;;;4.00;2.52;;;;;;;12.45;47.97;100532.84;2237555;79;33960;-60
2021/05/03 10:13:07;;;;;;;5.97;2.08;;;;;;;12.06;48.35;100539.40;2197889;80;27680;-59
2021/05/03 10:16:11;;;;;;;4.37;1.70;;;;;;;11.99;48.65;100546.91;2254612;78;29310;-58
2021/05/03 10:19:17;;;;;;;7.25;3.02;;;;;;;11.93;49.12;100540.47;2254954;78;31122;-60
2021/05/03 10:22:22;;;;;;;4.33;2.00;;;;;;;11.92;49.92;100537.39;2188344;80;33124;-60
2021/05/03 10:25:25;;;;;;;4.03;2.67;;;;;;;12.03;50.01;100545.78;2219272;79;29840;-60
2021/05/03 10:28:29;;;;;;;9.15;5.72;;;;;;;12.05;49.07;100537.17;2217088;80;27591;-59
2021/05/03 10:31:57;;;;;;;4.97;3.05;;;;;;;12.07;48.78;100549.20;2235086;78;28851;-59
2021/05/03 10:35:01;;;;;;;4.47;2.65;;;;;;;12.07;48.87;100541.14;2176599;80;32046;-58
2021/05/03 10:38:04;;;;;;;8.37;2.47;;;;;;;12.02;48.57;100541.36;2218691;80;33146;-64
2021/05/03 10:41:26;;;;;;;3.45;1.85;;;;;;;11.92;49.24;100547.64;2232093;78;29092;-69
2021/05/03 10:44:28;;;;;;;3.58;2.62;;;;;;;11.84;49.44;100545.83;2189869;80;27683;-59
2021/05/03 10:47:40;;;;;;;3.05;1.72;;;;;;;11.73;48.97;100549.06;2258990;78;29351;-59
2021/05/03 10:50:44;;;;;;;4.33;1.40;;;;;;;11.61;49.08;100545.66;2258161;78;32701;-59
2021/05/03 10:53:46;;;;;;;5.72;1.47;;;;;;;11.51;49.18;100556.83;2221646;80;33121;-58
2021/05/03 10:56:49;;;;;;;4.05;1.25;;;;;;;11.44;49.47;100551.39;2251610;78;29798;-59
2021/05/03 10:59:58;;;;;;;2.17;1.10;;;;;;;11.48;49.72;100552.09;2257143;78;27662;-58
2021/05/03 11:03:00;;;;;;;2.42;1.35;;;;;;;11.52;49.49;100546.50;2221291;80;29849;-61
2021/05/03 11:06:03;;;;;;;3.15;1.30;;;;;;;11.71;49.90;100542.89;2260173;78;32558;-62
2021/05/03 11:09:32;;;;;;;3.00;1.98;;;;;;;11.96;50.11;100543.00;2256612;78;34010;-62
2021/05/03 11:12:34;;;;;;;7.00;3.30;;;;;;;12.26;50.06;100535.66;2221993;79;28853;-59
2021/05/03 11:15:36;;;;;;;4.40;2.33;;;;;;;12.64;50.27;100528.70;2223743;78;27737;-59
2021/05/03 11:18:41;;;;;;;4.15;3.40;;;;;;;13.00;49.93;100537.00;2252713;78;28823;-60
2021/05/03 11:21:46;;;;;;;;;;;;;;;13.25;48.18;100539.66;2257793;78;31152;-58
2021/05/03 11:31:15;;;;;;;3.92;3.62;;;;;;;13.14;48.71;100537.58;2198670;80;27672;-59
2021/05/03 11:34:31;;;;;;;3.12;2.75;;;;;;;13.35;48.39;100538.66;2259206;78;28796;-59
2021/05/03 11:37:36;;;;;;;3.60;2.02;;;;;;;13.50;47.77;100539.61;2227449;78;31153;-60
2021/05/03 11:40:56;;;;;;;2.62;2.37;;;;;;;13.59;47.46;100536.41;2182532;80;35384;-64
2021/05/03 11:44:09;;;;;;;3.22;2.05;;;;;;;13.68;47.94;100543.92;2196965;80;29047;-59
2021/05/03 11:47:06;;;;;;;3.15;1.90;;;;;;;13.85;48.11;100539.37;2226588;78;27915;-59
2021/05/03 11:50:15;;;;;;;3.98;1.72;;;;;;;14.03;46.73;100541.45;2243425;78;28966;-59
2021/05/03 11:53:24;;;;;;;5.00;2.40;;;;;;;14.15;47.46;100539.82;2203772;80;31189;-59
2021/05/03 11:56:29;;;;;;;3.47;2.12;;;;;;;14.23;47.61;100538.89;2196664;80;33120;-59
2021/05/03 11:59:32;;;;;;;4.12;2.00;;;;;;;14.32;47.66;100549.58;2191181;80;29003;-59
2021/05/03 12:02:35;;;;;;;5.15;2.55;;;;;;;14.18;46.29;100553.11;2217350;79;27967;-59
2021/05/03 12:05:39;;;;;;;2.35;1.90;;;;;;;13.91;47.00;100563.72;2192903;79;28765;-59
2021/05/03 12:08:41;;;;;;;5.60;2.10;;;;;;;13.77;47.56;100568.59;2223572;79;31218;-58
2021/05/03 12:12:01;;;;;;;5.15;1.92;;;;;;;13.59;47.86;100571.40;2217084;79;33546;-58
2021/05/03 12:15:29;;;;;;;6.60;1.65;;;;;;;13.54;47.73;100569.44;2227380;79;28862;-58
2021/05/03 12:18:44;;;;;;;6.55;2.87;;;;;;;13.67;47.99;100555.66;2328419;76;32406;-60
2021/05/03 12:22:00;;;;;;;4.22;2.15;;;;;;;13.86;47.62;100560.45;2281571;77;27654;-59
2021/05/03 12:25:08;;;;;;;3.12;1.60;;;;;;;14.05;46.27;100551.66;2304514;77;28808;-60
2021/05/03 12:28:20;;;;;;;2.17;1.62;;;;;;;14.11;46.19;100559.84;2280254;77;32107;-61
2021/05/03 12:31:23;;;;;;;4.80;2.52;;;;;;;14.13;45.66;100557.44;2285638;77;33126;-58
2021/05/03 12:34:26;;;;;;;2.40;2.05;;;;;;;14.13;45.73;100554.74;2215407;79;28606;-59
2021/05/03 12:37:31;;;;;;;4.60;1.95;;;;;;;14.22;45.74;100547.08;2261636;77;27919;-59
2021/05/03 12:40:35;;;;;;;3.45;1.98;;;;;;;14.24;46.51;100541.09;2238715;78;28696;-63
2021/05/03 12:43:40;;;;;;;5.62;2.75;;;;;;;14.30;46.68;100543.41;2214245;79;31134;-59
2021/05/03 12:46:44;;;;;;;3.07;2.00;;;;;;;14.34;46.91;100548.13;2223849;77;34449;-60
2021/05/03 12:56:25;;;;;;;2.42;1.60;;;;;;;14.45;46.20;100559.13;2266779;76;27762;-65
2021/05/03 13:09:54;;;;;;;5.45;3.42;;;;;;;14.23;45.01;100543.42;2209340;78;27706;-61
2021/05/03 13:23:32;;;;;;;5.05;1.92;;;;;;;13.95;45.51;100545.95;2176729;79;28888;-59
2021/05/03 13:29:45;;;;;;;6.20;3.22;;;;;;;13.79;44.87;100544.64;2197049;80;29244;-59
2021/05/03 13:32:47;;;;;;;8.10;4.90;;;;;;;13.73;44.22;100550.88;2208468;80;31142;-60
2021/05/03 13:35:49;;;;;;;8.35;3.83;;;;;;;13.77;44.41;100543.02;2202891;80;33694;-68
2021/05/03 13:38:52;;;;;;;5.85;3.75;;;;;;;13.75;44.88;100536.84;2205946;80;29300;-75
2021/05/03 13:41:54;;;;;;;10.05;5.30;;;;;;;13.86;44.99;100535.72;2203654;80;27795;-68
2021/05/03 13:44:56;;;;;;;10.40;5.05;;;;;;;13.95;44.92;100533.84;2208938;80;28804;-62
2021/05/03 13:48:01;;;;;;;9.35;3.87;;;;;;;14.03;44.55;100536.06;2198351;80;32300;-61
2021/05/03 13:51:06;;;;;;;5.30;3.85;;;;;;;14.03;44.77;100525.75;2146540;80;33106;-59
2021/05/03 13:54:10;;;;;;;9.13;4.33;;;;;;;14.01;44.58;100533.06;2204854;80;28864;-60
2021/05/03 13:57:12;;;;;;;7.30;4.55;;;;;;;13.92;44.77;100524.59;2204098;80;27907;-60
2021/05/03 14:00:15;;;;;;;6.28;2.40;;;;;;;13.89;44.71;100523.42;2214668;80;29333;-59
2021/05/03 14:03:18;;;;;;;4.95;2.70;;;;;;;13.80;44.96;100531.57;2206411;80;31116;-59
2021/05/03 14:06:21;;;;;;;6.67;3.00;;;;;;;13.83;45.50;100523.77;2141675;80;33192;-61
2021/05/03 14:09:25;;;;;;;3.65;2.65;;;;;;;13.79;44.87;100524.45;2191317;80;28845;-61
2021/05/03 14:12:27;;;;;;;4.37;2.40;;;;;;;13.77;44.75;100529.05;2187821;80;27944;-65
2021/05/03 14:15:32;;;;;;;3.33;1.52;;;;;;;13.81;45.20;100527.92;2190102;80;28812;-63
2021/05/03 14:18:34;;;;;;;3.10;1.95;;;;;;;13.86;44.90;100522.25;2212937;78;32007;-69
2021/05/03 14:21:37;;;;;;;6.03;3.47;;;;;;;13.82;44.12;100524.27;2216717;79;34411;-65
2021/05/03 14:24:41;;;;;;;8.18;6.28;;;;;;;13.72;43.84;100516.36;2219776;79;29733;-61
2021/05/03 14:27:44;;;;;;;5.17;2.72;;;;;;;13.55;44.97;100513.31;2214518;78;27800;-63
2021/05/03 14:30:52;;;;;;;3.87;2.40;;;;;;;13.47;45.01;100514.25;2209508;79;29217;-64
2021/05/03 14:33:54;;;;;;;5.20;2.47;;;;;;;13.29;44.94;100516.13;2208981;78;31922;-61
2021/05/03 14:36:56;;;;;;;3.95;1.90;;;;;;;13.12;44.36;100519.80;2202872;78;34808;-63
2021/05/03 14:39:58;;;;;;;3.42;2.37;;;;;;;12.91;44.41;100517.36;2207898;79;31210;-66
2021/05/03 14:43:05;;;;;;;4.50;1.98;;;;;;;12.73;44.76;100509.37;2215820;79;27831;-60
2021/05/03 14:55:47;;;;;;;5.10;3.20;;;;;;;12.21;45.85;100515.77;2201644;78;28070;-61
2021/05/03 14:58:50;;;;;;;5.65;2.08;;;;;;;12.21;46.16;100514.87;2213657;78;27737;-59
2021/05/03 15:01:52;;;;;;;8.98;3.80;;;;;;;12.26;46.11;100514.17;2158550;81;30157;-70
2021/05/03 15:04:54;;;;;;;2.85;2.17;;;;;;;12.30;46.55;100509.03;2187183;79;31133;-60
2021/05/03 15:07:57;;;;;;;2.42;1.55;;;;;;;12.36;46.37;100506.48;2187253;79;33549;-61
2021/05/03 15:10:59;;;;;;;2.00;1.60;;;;;;;12.36;46.22;100510.52;2174060;81;29609;-59
2021/05/03 15:14:11;;;;;;;13.95;6.25;;;;;;;12.37;45.87;100505.54;2170193;79;28249;-61
2021/05/03 15:17:22;;;;;;;8.80;4.37;;;;;;;12.40;45.68;100503.55;2179464;79;28986;-64
2021/05/03 15:21:18;;;;;;;2.75;2.02;;;;;;;12.41;45.53;100499.91;2180568;81;31212;-64
2021/05/03 15:23:27;;;;;;;10.38;5.10;;;;;;;12.40;45.89;100493.29;2181157;81;34104;-66
2021/05/03 15:26:33;;;;;;;8.40;3.75;;;;;;;12.40;45.56;100492.80;2157478;82;28692;-60
2021/05/03 15:29:40;;;;;;;12.90;5.83;;;;;;;12.46;45.75;100488.91;2148822;82;27678;-63